CYGW

Kuujjuarapik Airport

Kuujjuarapik, Quebec, Canada
METAR CYGW 180800Z AUTO 16008G17KT 3SM -SN OVC032 M14/M16 A2961 RMK SLP029
Observed Flight Rules
Dec-18 @ 08:00 UTC (38 minutes ago) Marginal Visual Flight Rules
Wind Visibility Clouds Conditions
160° at 8 knots
 Gusting to 17 knots
3 miles
  • Overcast at 3,200' AGL
  • Light Snow
Temperatures Readings
Current -14°C / 7°F
Dewpoint -16°C / 3°F
Humidity 85%
Altimeter 29.61" Hg
Pressure 1002.9 hPa
Elevation 12
METAR CYGW 180800Z AUTO 16008G17KT 3SM -SN OVC032 M14/M16 A2961 RMK SLP029
Observed Flight Rules
Dec-18 @ 08:00 UTC
(38 minutes ago)
MVFR
Wind Visibility
160° at 8 knots
 Gusting to 17 knots
3 miles
Clouds
  • Overcast at 3,200' AGL
Conditions
  • Light Snow
Temperature Dewpoint
-14°C / 7°F -16°C / 3°F
Humidity Altimeter Pressure
85% 29.61" Hg 1002.9 hPa